Plumville, Pennsylvania
Current Conditions -  °F | °C
As of 5:35 PM on Monday 24 Nov 2014 (Local Time) from KIDI Reporting Station
Scattered Clouds Scattered Clouds  
Wind Chill: 63°   Ceiling: Unl
Heat Index: 63°   Visibility: 10mi
Dew Point: 43°   Wind: 23mph
Humidity: 48%   Direction: 270°W
Pressure: 29.62"   Gusts: 33mph
Location:  40.79°N, 79.18°W
Report Text: KIDI 242235Z AUTO 27020G29KT 10SM FEW065 SCT075 SCT085 17/06 A2962 RMK A01
Loading
Personal Weather Stations






























Interactive Weather Map New forecast layout! Learn more

10-Day Weather Forecast

Advertisements
Track Severe Weather on mobile